UATE

Actau Airport (formerly Shevchenko-Central)

Airport
ICAO code
UATE
IATA Code
SCO
Summary
ICAO Region
APAC
ICAO Territory
Location

Actau,

Serving
Actau
Elevation
73 ft
Coordinates
43° 51' 29" N , 51° 5' 32" E
KCC
BSk
Airport BS
Bird Strike
Airport WX
Fog
Metar
Observation
UATE 171900Z 06005MPS CAVOK 26/09 Q1012 NOSIG RMK QFE757/1009
Station
Aktau
Date/Time
2022-08-17 19:00:00
Wind direction
60°
Lowest cloud amount
clouds and visibility OK
Temperature
26°C
Dew point
9°C
Humidity
34%
QNH
1012 hPa
Weather condition
n/a

Description

International airport serving Actau, a Caspian Sea port city in Kazakhstan. The airport is located approximately 20km north of the city.

Climatology

Cold Semi-arid climate (Köppen climate classification BSk). - Hot, sometimes extremely hot summers and cold, sometimes very cold winters. Some snowfall during the winter. Areas featuring cold semi-arid climates are sometimes subject to major temperature swings during a 24 hour period.

Runways

Designator Length Width Surface Rops
12/30 2652 45 ASP Yes/Yes
12L/30R 2935 46 GRE No/No

Airport map

Aerial View

SKYbrary Partners:

Safety knowledge contributed by: